createdAt,value
2023-02-15T00:02:08.902Z,71.09
2023-02-15T00:04:49.090Z,70.93
2023-02-15T00:07:20.453Z,71.04
2023-02-15T00:09:48.894Z,70.65
2023-02-15T00:12:17.789Z,70.37
2023-02-15T00:14:46.118Z,70.30
2023-02-15T00:17:14.074Z,69.63
2023-02-15T00:19:42.118Z,69.80
2023-02-15T00:22:10.387Z,69.86
2023-02-15T00:24:39.611Z,69.61
2023-02-15T00:27:07.533Z,69.54
2023-02-15T00:29:35.376Z,69.54
2023-02-15T00:32:03.294Z,69.60
2023-02-15T00:34:31.226Z,69.36
2023-02-15T00:36:59.292Z,69.34
2023-02-15T00:39:28.345Z,69.61
2023-02-15T00:41:57.662Z,69.65
2023-02-15T00:44:25.589Z,69.34
2023-02-15T00:46:53.482Z,69.14
2023-02-15T00:49:22.397Z,69.54
2023-02-15T00:51:50.294Z,69.63
2023-02-15T00:54:18.254Z,69.90
2023-02-15T00:56:46.074Z,69.68
2023-02-15T00:59:15.502Z,69.24
2023-02-15T01:01:43.385Z,69.58
2023-02-15T01:04:11.344Z,69.23
2023-02-15T01:06:39.271Z,68.96
2023-02-15T01:09:07.301Z,68.64
2023-02-15T01:11:35.238Z,69.39
2023-02-15T01:14:04.148Z,69.02
2023-02-15T01:16:33.483Z,69.35
2023-02-15T01:19:03.470Z,69.01
2023-02-15T01:21:35.353Z,68.90
2023-02-15T01:24:04.495Z,68.63
2023-02-15T01:26:32.434Z,68.84
2023-02-15T01:29:00.493Z,68.34
2023-02-15T01:31:28.457Z,68.31
2023-02-15T01:33:57.894Z,68.49
2023-02-15T01:36:25.990Z,68.46
2023-02-15T01:38:53.897Z,68.60
2023-02-15T01:41:23.697Z,68.88
2023-02-15T01:43:54.177Z,68.57
2023-02-15T01:46:26.631Z,69.02
2023-02-15T01:48:59.658Z,68.65
2023-02-15T01:51:31.331Z,68.84
2023-02-15T01:54:03.711Z,68.75
2023-02-15T01:56:35.537Z,68.42
2023-02-15T01:59:09.900Z,68.71
2023-02-15T02:01:38.499Z,69.75
2023-02-15T02:04:14.362Z,69.66
2023-02-15T02:06:42.378Z,69.08
2023-02-15T02:09:11.304Z,69.04
2023-02-15T02:11:41.321Z,69.55
2023-02-15T02:14:10.001Z,69.69
2023-02-15T02:16:45.275Z,69.61
2023-02-15T02:19:40.773Z,69.18
2023-02-15T02:22:42.239Z,69.02
2023-02-15T02:25:51.332Z,68.64
2023-02-15T02:28:43.850Z,68.75
2023-02-15T02:31:38.192Z,68.39
2023-02-15T02:34:15.451Z,68.34
2023-02-15T02:36:50.273Z,68.52
2023-02-15T02:39:32.215Z,67.83
2023-02-15T02:42:07.819Z,68.22
2023-02-15T02:44:44.911Z,68.82
2023-02-15T02:47:18.371Z,69.24
2023-02-15T02:49:47.646Z,69.08
2023-02-15T02:52:38.495Z,69.10
2023-02-15T02:55:11.694Z,69.32
2023-02-15T02:57:44.576Z,69.02
2023-02-15T03:00:16.744Z,69.08
2023-02-15T03:02:49.966Z,69.34
2023-02-15T03:05:26.220Z,70.43
2023-02-15T03:07:57.927Z,70.52
2023-02-15T03:10:28.353Z,69.61
2023-02-15T03:12:56.329Z,70.21
2023-02-15T03:15:49.019Z,70.81
2023-02-15T03:18:19.246Z,71.71
2023-02-15T03:20:49.859Z,71.53
2023-02-15T03:23:21.823Z,71.15
2023-02-15T03:25:54.360Z,71.25
2023-02-15T03:28:31.117Z,71.12
2023-02-15T03:31:03.001Z,71.11
2023-02-15T03:33:31.805Z,70.88
2023-02-15T03:36:06.933Z,70.34
2023-02-15T03:38:44.285Z,70.06
2023-02-15T03:41:15.147Z,70.24
2023-02-15T03:43:50.196Z,69.73
2023-02-15T03:46:26.564Z,69.32
2023-02-15T03:48:56.505Z,69.36
2023-02-15T03:51:39.124Z,69.66
2023-02-15T03:54:10.609Z,69.71
2023-02-15T03:56:40.743Z,69.31
2023-02-15T03:59:26.358Z,69.30
2023-02-15T04:02:11.974Z,69.62
2023-02-15T04:04:43.116Z,69.63
2023-02-15T04:07:12.945Z,69.43
2023-02-15T04:09:58.294Z,69.82
2023-02-15T04:12:26.246Z,69.52
2023-02-15T04:15:11.749Z,68.76
2023-02-15T04:17:40.174Z,69.06
2023-02-15T04:20:27.808Z,70.01
2023-02-15T04:23:14.394Z,70.76
2023-02-15T04:25:42.305Z,70.63
2023-02-15T04:28:10.715Z,69.87
2023-02-15T04:30:38.714Z,70.18
2023-02-15T04:33:06.657Z,69.72
2023-02-15T04:35:34.593Z,70.35
2023-02-15T04:38:04.018Z,70.10
2023-02-15T04:40:32.184Z,69.41
2023-02-15T04:43:00.146Z,69.44
2023-02-15T04:45:28.190Z,69.48
2023-02-15T04:47:56.231Z,69.14
2023-02-15T04:50:24.226Z,69.36
2023-02-15T04:52:54.698Z,68.84
2023-02-15T04:55:24.110Z,69.07
2023-02-15T04:57:51.968Z,69.22
2023-02-15T05:00:20.557Z,68.95
2023-02-15T05:02:48.503Z,69.11
2023-02-15T05:05:16.583Z,68.49
2023-02-15T05:07:44.443Z,68.35
2023-02-15T05:10:12.563Z,68.08
2023-02-15T05:12:42.132Z,68.05
2023-02-15T05:15:10.869Z,68.26
2023-02-15T05:17:38.914Z,68.12
2023-02-15T05:20:08.445Z,68.19
2023-02-15T05:22:36.558Z,68.37
2023-02-15T05:25:22.229Z,67.80
2023-02-15T05:28:09.210Z,68.00
2023-02-15T05:30:37.491Z,67.86
2023-02-15T05:33:05.433Z,67.73
2023-02-15T05:35:33.861Z,68.12
2023-02-15T05:38:01.810Z,68.01
2023-02-15T05:40:29.679Z,68.10
2023-02-15T05:42:59.656Z,68.48
2023-02-15T05:45:27.755Z,68.47
2023-02-15T05:47:55.954Z,68.18
2023-02-15T05:50:23.755Z,67.92
2023-02-15T05:52:52.561Z,68.13
2023-02-15T05:55:20.972Z,67.97
2023-02-15T05:57:48.988Z,68.00
2023-02-15T06:00:20.379Z,68.08
2023-02-15T06:02:48.301Z,68.46
2023-02-15T06:05:16.349Z,68.31
2023-02-15T06:07:45.251Z,68.38
2023-02-15T06:10:13.842Z,67.88
2023-02-15T06:12:41.861Z,68.32
2023-02-15T06:15:10.646Z,67.63
2023-02-15T06:17:39.982Z,68.18
2023-02-15T06:20:09.306Z,67.99
2023-02-15T06:22:37.281Z,67.74
2023-02-15T06:25:05.608Z,67.92
2023-02-15T06:27:33.722Z,67.67
2023-02-15T06:30:01.687Z,67.55
2023-02-15T06:32:30.121Z,67.12
2023-02-15T06:34:59.486Z,67.40
2023-02-15T06:37:27.407Z,67.45
2023-02-15T06:39:55.299Z,67.22
2023-02-15T06:42:23.616Z,67.03
2023-02-15T06:44:51.717Z,66.99
2023-02-15T06:47:19.557Z,67.21
2023-02-15T06:49:47.411Z,67.17
2023-02-15T06:52:16.687Z,67.18
2023-02-15T06:54:44.516Z,67.35
2023-02-15T06:57:12.445Z,66.91
2023-02-15T06:59:40.358Z,67.22
2023-02-15T07:02:08.322Z,67.45
2023-02-15T07:04:36.756Z,67.44
2023-02-15T07:07:04.724Z,67.37
2023-02-15T07:09:34.052Z,66.99
2023-02-15T07:12:19.664Z,67.13
2023-02-15T07:14:47.550Z,67.67
2023-02-15T07:17:35.094Z,67.41
2023-02-15T07:20:03.850Z,67.52
2023-02-15T07:22:31.828Z,67.45
2023-02-15T07:25:01.093Z,67.31
2023-02-15T07:27:28.954Z,67.58
2023-02-15T07:29:56.904Z,67.19
2023-02-15T07:32:24.929Z,67.38
2023-02-15T07:34:52.866Z,67.33
2023-02-15T07:37:20.786Z,67.57
2023-02-15T07:39:48.676Z,67.85
2023-02-15T07:42:18.863Z,68.69
2023-02-15T07:44:48.212Z,70.34
2023-02-15T07:47:16.265Z,71.11
2023-02-15T07:49:44.282Z,72.37
2023-02-15T07:52:12.281Z,72.79
2023-02-15T07:54:40.285Z,73.27
2023-02-15T07:57:08.248Z,73.71
2023-02-15T07:59:37.532Z,74.05
2023-02-15T08:02:07.243Z,74.50
2023-02-15T08:04:35.086Z,74.47
2023-02-15T08:07:02.870Z,74.18
2023-02-15T08:09:30.776Z,74.45
2023-02-15T08:11:58.655Z,73.94
2023-02-15T08:14:26.579Z,72.99
2023-02-15T08:16:57.286Z,72.61
2023-02-15T08:19:26.584Z,72.34
2023-02-15T08:21:57.822Z,71.74
2023-02-15T08:24:28.325Z,71.39
2023-02-15T08:26:56.728Z,71.77
2023-02-15T08:29:26.570Z,71.55
2023-02-15T08:31:59.673Z,71.03
2023-02-15T08:34:28.073Z,70.74
2023-02-15T08:36:56.014Z,70.45
2023-02-15T08:39:24.351Z,70.53
2023-02-15T08:41:52.280Z,70.52
2023-02-15T08:44:21.476Z,70.52
2023-02-15T08:46:50.722Z,71.28
2023-02-15T08:49:21.964Z,71.44
2023-02-15T08:51:51.229Z,71.84
2023-02-15T08:54:21.578Z,72.60
2023-02-15T08:56:49.960Z,72.36
2023-02-15T08:59:19.977Z,72.50
2023-02-15T09:01:48.662Z,72.20
2023-02-15T09:04:17.255Z,73.07
2023-02-15T09:06:49.184Z,72.23
2023-02-15T09:09:17.601Z,72.37
2023-02-15T09:11:48.353Z,71.70
2023-02-15T09:14:18.393Z,71.99
2023-02-15T09:16:49.590Z,71.38
2023-02-15T09:19:18.434Z,70.82
2023-02-15T09:21:47.836Z,71.06
2023-02-15T09:24:17.416Z,70.25
2023-02-15T09:26:48.513Z,70.73
2023-02-15T09:29:18.018Z,70.73
2023-02-15T09:31:49.621Z,70.29
2023-02-15T09:34:19.682Z,70.77
2023-02-15T09:36:49.241Z,70.02
2023-02-15T09:39:19.511Z,70.66
2023-02-15T09:42:06.498Z,70.54
2023-02-15T09:44:48.859Z,70.67
2023-02-15T09:47:38.270Z,70.55
2023-02-15T09:50:20.236Z,71.07
2023-02-15T09:53:14.365Z,70.89
2023-02-15T09:55:53.260Z,70.87
2023-02-15T09:58:31.256Z,71.05
2023-02-15T10:01:05.730Z,71.06
2023-02-15T10:03:52.768Z,71.29
2023-02-15T10:06:42.822Z,71.66
2023-02-15T10:09:26.926Z,71.50
2023-02-15T10:12:09.348Z,71.50
2023-02-15T10:14:57.965Z,71.74
2023-02-15T10:17:41.597Z,71.78
2023-02-15T10:20:20.036Z,72.14
2023-02-15T10:23:00.934Z,71.81
2023-02-15T10:25:42.381Z,72.12
2023-02-15T10:28:19.569Z,72.13
2023-02-15T10:30:51.484Z,72.53
2023-02-15T10:33:40.095Z,72.24
2023-02-15T10:36:28.959Z,72.28
2023-02-15T10:39:04.357Z,72.27
2023-02-15T10:41:47.147Z,72.17
2023-02-15T10:44:35.805Z,72.14
2023-02-15T10:47:19.283Z,71.62
2023-02-15T10:50:02.650Z,71.76
2023-02-15T10:52:43.121Z,71.34
2023-02-15T10:55:20.742Z,71.27
2023-02-15T10:58:01.250Z,70.70
2023-02-15T11:00:40.162Z,70.66
2023-02-15T11:03:23.574Z,70.22
2023-02-15T11:06:02.138Z,69.93
2023-02-15T11:08:33.688Z,69.70
2023-02-15T11:11:06.305Z,69.51
2023-02-15T11:13:40.805Z,69.83
2023-02-15T11:16:13.553Z,69.40
2023-02-15T11:18:46.462Z,69.60
2023-02-15T11:21:22.654Z,69.41
2023-02-15T11:23:51.308Z,69.57
2023-02-15T11:26:26.069Z,69.96
2023-02-15T11:28:59.327Z,70.06
2023-02-15T11:31:31.473Z,70.25
2023-02-15T11:34:05.286Z,70.24
2023-02-15T11:36:38.102Z,70.31
2023-02-15T11:39:11.742Z,70.73
2023-02-15T11:41:43.551Z,70.19
2023-02-15T11:44:21.809Z,70.29
2023-02-15T11:46:49.714Z,70.46
2023-02-15T11:49:25.798Z,69.98
2023-02-15T11:51:55.147Z,70.11
2023-02-15T11:54:28.788Z,69.98
2023-02-15T11:56:58.102Z,69.97
2023-02-15T11:59:34.310Z,69.84
2023-02-15T12:02:02.320Z,69.80
2023-02-15T12:04:35.009Z,69.46
2023-02-15T12:07:08.726Z,69.29
2023-02-15T12:09:40.522Z,69.46
2023-02-15T12:12:24.121Z,69.82
2023-02-15T12:14:55.446Z,69.73
2023-02-15T12:17:26.118Z,69.31
2023-02-15T12:19:57.151Z,69.42
2023-02-15T12:22:27.709Z,69.50
2023-02-15T12:24:58.530Z,69.09
2023-02-15T12:27:29.179Z,69.37
2023-02-15T12:30:03.262Z,69.37
2023-02-15T12:32:36.884Z,69.78
2023-02-15T12:35:15.504Z,69.85
2023-02-15T12:37:56.956Z,69.71
2023-02-15T12:40:26.924Z,68.96
2023-02-15T12:42:54.746Z,69.02
2023-02-15T12:45:27.229Z,68.97
2023-02-15T12:48:16.795Z,68.57
2023-02-15T12:50:46.195Z,68.50
2023-02-15T12:53:21.003Z,68.61
2023-02-15T12:55:54.649Z,68.29
2023-02-15T12:58:26.096Z,68.03
2023-02-15T13:01:13.771Z,68.02
2023-02-15T13:03:57.487Z,67.71
2023-02-15T13:06:25.834Z,67.65
2023-02-15T13:08:59.558Z,67.52
2023-02-15T13:11:35.012Z,67.12
2023-02-15T13:14:05.322Z,66.30
2023-02-15T13:16:38.497Z,66.82
2023-02-15T13:19:12.982Z,65.90
2023-02-15T13:21:44.079Z,65.80
2023-02-15T13:24:20.934Z,66.13
2023-02-15T13:26:49.790Z,64.89
2023-02-15T13:29:23.347Z,64.67
2023-02-15T13:31:54.883Z,65.09
2023-02-15T13:34:27.516Z,64.93
2023-02-15T13:37:04.931Z,64.22
2023-02-15T13:39:40.493Z,63.91
2023-02-15T13:42:22.575Z,64.08
2023-02-15T13:45:11.356Z,63.65
2023-02-15T13:47:47.756Z,63.49
2023-02-15T13:50:49.674Z,63.19
2023-02-15T13:53:43.299Z,63.05
2023-02-15T13:56:18.407Z,63.41
2023-02-15T13:59:04.899Z,62.90
2023-02-15T14:01:41.512Z,62.64
2023-02-15T14:04:41.788Z,63.50
2023-02-15T14:07:26.588Z,62.70
2023-02-15T14:10:04.828Z,63.00
2023-02-15T14:12:48.086Z,63.52
2023-02-15T14:15:29.660Z,62.84
2023-02-15T14:18:11.395Z,62.85
2023-02-15T14:20:52.526Z,63.21
2023-02-15T14:23:37.079Z,62.78
2023-02-15T14:26:12.335Z,62.93
2023-02-15T14:28:47.680Z,63.67
2023-02-15T14:31:17.705Z,63.33
2023-02-15T14:33:55.794Z,63.06
2023-02-15T14:36:27.291Z,62.19
2023-02-15T14:39:32.661Z,62.66
2023-02-15T14:42:04.189Z,62.38
2023-02-15T14:44:39.457Z,62.69
2023-02-15T14:47:13.174Z,62.33
2023-02-15T14:49:41.835Z,63.14
2023-02-15T14:52:13.543Z,62.00
2023-02-15T14:54:59.398Z,62.41
2023-02-15T14:57:34.126Z,62.48
2023-02-15T15:00:09.169Z,62.21
2023-02-15T15:02:49.922Z,62.35
2023-02-15T15:05:21.869Z,62.26
2023-02-15T15:07:54.797Z,62.87
2023-02-15T15:10:38.704Z,63.55
2023-02-15T15:13:42.346Z,63.09
2023-02-15T15:16:43.687Z,63.36
2023-02-15T15:19:13.633Z,62.46
2023-02-15T15:22:05.547Z,62.90
2023-02-15T15:24:55.243Z,63.12
2023-02-15T15:27:46.647Z,63.94
2023-02-15T15:31:02.630Z,63.43
2023-02-15T15:34:01.921Z,63.87
2023-02-15T15:37:19.678Z,64.83
2023-02-15T15:40:40.973Z,64.30
2023-02-15T15:43:34.663Z,64.82
2023-02-15T15:46:22.856Z,65.08
2023-02-15T15:48:51.296Z,65.59
2023-02-15T15:51:22.747Z,65.79
2023-02-15T15:53:54.273Z,66.29
2023-02-15T15:56:26.616Z,66.53
2023-02-15T15:58:57.980Z,67.05
2023-02-15T16:01:30.912Z,67.72
2023-02-15T16:04:00.991Z,68.35
2023-02-15T16:06:36.785Z,68.76
2023-02-15T16:09:17.527Z,69.03
2023-02-15T16:11:48.592Z,69.03
2023-02-15T16:14:21.322Z,69.57
2023-02-15T16:16:53.050Z,69.54
2023-02-15T16:19:28.140Z,69.97
2023-02-15T16:21:59.510Z,69.64
2023-02-15T16:24:47.783Z,70.19
2023-02-15T16:27:41.769Z,69.79
2023-02-15T16:30:30.028Z,70.06
2023-02-15T16:33:06.473Z,70.33
2023-02-15T16:35:35.412Z,70.09
2023-02-15T16:38:04.118Z,70.43
2023-02-15T16:40:48.148Z,70.43
2023-02-15T16:43:22.407Z,70.15
2023-02-15T16:45:50.902Z,70.35
2023-02-15T16:48:23.083Z,70.67
2023-02-15T16:50:55.151Z,70.54
2023-02-15T16:53:26.215Z,70.12
2023-02-15T16:55:57.373Z,70.19
2023-02-15T16:58:39.093Z,70.65
2023-02-15T17:01:10.735Z,71.01
2023-02-15T17:03:39.162Z,70.67
2023-02-15T17:06:22.504Z,70.75
2023-02-15T17:08:50.705Z,70.45
2023-02-15T17:11:20.851Z,70.79
2023-02-15T17:14:16.351Z,70.89
2023-02-15T17:16:50.006Z,70.95
2023-02-15T17:19:21.443Z,70.83
2023-02-15T17:21:52.676Z,70.49
2023-02-15T17:24:26.925Z,71.10
2023-02-15T17:27:01.376Z,70.82
2023-02-15T17:29:36.172Z,71.08
2023-02-15T17:32:05.926Z,70.71
2023-02-15T17:34:50.431Z,70.93
2023-02-15T17:37:28.888Z,70.52
2023-02-15T17:40:00.632Z,70.66
2023-02-15T17:42:28.686Z,70.95
2023-02-15T17:44:57.854Z,70.70
2023-02-15T17:47:27.762Z,70.42
2023-02-15T17:49:55.823Z,70.80
2023-02-15T17:52:25.030Z,70.85
2023-02-15T17:55:10.319Z,70.77
2023-02-15T17:57:38.661Z,71.38
2023-02-15T18:00:28.081Z,71.31
2023-02-15T18:03:13.568Z,70.79
2023-02-15T18:05:58.968Z,70.51
2023-02-15T18:08:46.857Z,71.04
2023-02-15T18:11:32.495Z,71.45
2023-02-15T18:14:01.460Z,71.01
2023-02-15T18:16:34.201Z,71.20
2023-02-15T18:19:04.801Z,70.95
2023-02-15T18:21:33.823Z,71.32
2023-02-15T18:24:02.860Z,70.61
2023-02-15T18:26:31.026Z,70.80
2023-02-15T18:28:58.824Z,71.07
2023-02-15T18:31:27.055Z,71.00
2023-02-15T18:33:59.130Z,70.69
2023-02-15T18:36:30.209Z,70.88
2023-02-15T18:38:58.422Z,71.27
2023-02-15T18:41:26.365Z,70.86
2023-02-15T18:43:55.478Z,70.60
2023-02-15T18:46:23.753Z,71.03
2023-02-15T18:48:51.655Z,70.84
2023-02-15T18:51:22.677Z,70.95
2023-02-15T18:53:52.884Z,71.19
2023-02-15T18:56:23.402Z,70.97
2023-02-15T18:58:51.335Z,71.02
2023-02-15T19:01:21.658Z,71.31
2023-02-15T19:03:51.208Z,70.93
2023-02-15T19:06:23.053Z,71.13
2023-02-15T19:08:53.460Z,70.79
2023-02-15T19:11:25.639Z,70.83
2023-02-15T19:13:55.010Z,70.57
2023-02-15T19:16:29.510Z,70.81
2023-02-15T19:18:57.820Z,71.42
2023-02-15T19:21:29.307Z,71.22
2023-02-15T19:24:00.036Z,71.60
2023-02-15T19:26:44.438Z,71.65
2023-02-15T19:29:16.897Z,71.47
2023-02-15T19:31:45.012Z,71.50
2023-02-15T19:34:17.808Z,71.24
2023-02-15T19:36:49.928Z,71.43
2023-02-15T19:39:27.185Z,71.72
2023-02-15T19:41:55.537Z,72.16
2023-02-15T19:44:23.721Z,71.93
2023-02-15T19:46:51.945Z,71.87
2023-02-15T19:49:19.903Z,71.91
2023-02-15T19:51:49.530Z,71.51
2023-02-15T19:54:30.670Z,71.51
2023-02-15T19:56:59.138Z,71.55
2023-02-15T19:59:28.884Z,71.92
2023-02-15T20:01:57.568Z,71.37
2023-02-15T20:04:26.020Z,72.05
2023-02-15T20:06:57.972Z,71.91
2023-02-15T20:09:29.617Z,72.41
2023-02-15T20:11:57.681Z,72.30
2023-02-15T20:14:25.643Z,72.39
2023-02-15T20:16:53.659Z,72.00
2023-02-15T20:19:21.613Z,72.53
2023-02-15T20:21:54.333Z,72.01
2023-02-15T20:24:27.454Z,72.26
2023-02-15T20:26:55.404Z,72.19
2023-02-15T20:29:23.218Z,72.47
2023-02-15T20:31:54.069Z,72.78
2023-02-15T20:34:23.105Z,73.77
2023-02-15T20:36:51.236Z,73.60
2023-02-15T20:39:20.417Z,73.67
2023-02-15T20:41:49.821Z,74.46
2023-02-15T20:44:23.561Z,73.93
2023-02-15T20:46:53.357Z,74.82
2023-02-15T20:49:21.400Z,75.04
2023-02-15T20:51:49.495Z,74.63
2023-02-15T20:54:18.770Z,75.22
2023-02-15T20:56:47.032Z,75.67
2023-02-15T20:59:25.739Z,75.67
2023-02-15T21:01:59.010Z,75.88
2023-02-15T21:04:31.394Z,75.43
2023-02-15T21:06:59.920Z,76.22
2023-02-15T21:09:28.485Z,75.93
2023-02-15T21:11:59.014Z,75.58
2023-02-15T21:14:30.078Z,75.80
2023-02-15T21:16:58.067Z,75.34
2023-02-15T21:19:26.129Z,75.57
2023-02-15T21:21:54.578Z,75.59
2023-02-15T21:24:25.427Z,75.88
2023-02-15T21:26:54.264Z,75.82
2023-02-15T21:29:24.720Z,76.16
2023-02-15T21:31:54.514Z,75.56
2023-02-15T21:34:22.554Z,76.10
2023-02-15T21:36:51.783Z,75.66
2023-02-15T21:39:22.299Z,75.65
2023-02-15T21:42:09.752Z,75.92
2023-02-15T21:44:55.530Z,75.45
2023-02-15T21:47:45.123Z,75.21
2023-02-15T21:50:32.412Z,75.15
2023-02-15T21:53:00.535Z,75.08
2023-02-15T21:55:28.407Z,75.52
2023-02-15T21:57:56.310Z,75.04
2023-02-15T22:00:26.008Z,75.32
2023-02-15T22:02:56.815Z,74.56
2023-02-15T22:05:27.823Z,74.87
2023-02-15T22:07:57.106Z,75.05
2023-02-15T22:10:27.417Z,74.53
2023-02-15T22:12:56.377Z,74.34
2023-02-15T22:15:25.832Z,75.00
2023-02-15T22:17:55.120Z,74.84
2023-02-15T22:20:25.173Z,74.71
2023-02-15T22:22:53.924Z,74.83
2023-02-15T22:25:24.626Z,74.35
2023-02-15T22:27:54.418Z,74.34
2023-02-15T22:30:26.690Z,74.17
2023-02-15T22:32:57.571Z,74.57
2023-02-15T22:35:27.738Z,74.33
2023-02-15T22:37:56.326Z,74.41
2023-02-15T22:40:29.060Z,73.80
2023-02-15T22:42:58.891Z,74.06
2023-02-15T22:45:28.167Z,74.74
2023-02-15T22:48:00.439Z,74.20
2023-02-15T22:50:30.933Z,74.35
2023-02-15T22:53:01.690Z,74.78
2023-02-15T22:55:33.645Z,74.25
2023-02-15T22:58:02.113Z,73.93
2023-02-15T23:00:34.775Z,73.69
2023-02-15T23:03:14.672Z,73.17
2023-02-15T23:05:42.516Z,73.53
2023-02-15T23:08:11.156Z,73.64
2023-02-15T23:10:40.524Z,73.64
2023-02-15T23:13:25.811Z,72.97
2023-02-15T23:15:58.768Z,73.43
2023-02-15T23:18:31.905Z,73.34
2023-02-15T23:21:02.253Z,73.27
2023-02-15T23:23:33.724Z,73.35
2023-02-15T23:26:04.227Z,73.00
2023-02-15T23:28:35.969Z,72.62
2023-02-15T23:31:04.627Z,72.73
2023-02-15T23:33:35.969Z,73.42
2023-02-15T23:36:05.012Z,73.10
2023-02-15T23:38:33.785Z,73.17
2023-02-15T23:41:21.190Z,73.24
2023-02-15T23:43:53.323Z,73.17
2023-02-15T23:46:28.335Z,72.78
2023-02-15T23:48:57.983Z,72.49
2023-02-15T23:51:30.697Z,72.36
2023-02-15T23:53:58.863Z,72.00
2023-02-15T23:56:26.856Z,71.51
2023-02-15T23:58:54.866Z,72.13
